sensor_id;sensor_type;location;lat;lon;timestamp;pressure;altitude;pressure_sealevel;temperature;humidity
36834;BME280;48003;52.084;5.224;2023-02-21T02:14:48;102068.0;;;11.4;84.83
36834;BME280;48003;52.084;5.224;2023-02-21T02:16:34;102065.0;;;11.1;86.84
36834;BME280;48003;52.084;5.224;2023-02-21T02:18:34;102063.0;;;11.15;86.53
36834;BME280;48003;52.084;5.224;2023-02-21T02:22:21;102064.0;;;10.81;88.09
36834;BME280;48003;52.084;5.224;2023-02-21T02:24:29;102063.0;;;10.7;88.64
36834;BME280;48003;52.084;5.224;2023-02-21T02:27:06;102068.0;;;10.96;87.74
36834;BME280;48003;52.084;5.224;2023-02-21T02:34:54;102067.0;;;11.32;85.89
36834;BME280;48003;52.084;5.224;2023-02-21T02:36:39;102066.0;;;10.55;89.16
36834;BME280;48003;52.084;5.224;2023-02-21T02:38:24;102063.0;;;10.94;88.38
36834;BME280;48003;52.084;5.224;2023-02-21T02:40:08;102067.0;;;10.67;89.0
36834;BME280;48003;52.084;5.224;2023-02-21T02:41:59;102059.0;;;10.95;88.0
36834;BME280;48003;52.084;5.224;2023-02-21T02:45:29;102063.0;;;11.09;86.61
36834;BME280;48003;52.084;5.224;2023-02-21T02:47:13;102059.0;;;10.93;87.28
36834;BME280;48003;52.084;5.224;2023-02-21T02:48:58;102057.0;;;11.16;86.77
36834;BME280;48003;52.084;5.224;2023-02-21T02:50:38;102063.0;;;10.77;88.95
36834;BME280;48003;52.084;5.224;2023-02-21T02:52:16;102063.0;;;10.76;88.2
36834;BME280;48003;52.084;5.224;2023-02-21T02:55:34;102062.0;;;10.95;88.11
36834;BME280;48003;52.084;5.224;2023-02-21T02:57:12;102059.0;;;10.79;88.39
36834;BME280;48003;52.084;5.224;2023-02-21T02:58:53;102059.0;;;11.03;87.69
36834;BME280;48003;52.084;5.224;2023-02-21T03:02:26;102058.0;;;10.73;89.21
36834;BME280;48003;52.084;5.224;2023-02-21T03:04:53;102064.0;;;11.08;87.54
36834;BME280;48003;52.084;5.224;2023-02-21T03:06:43;102060.0;;;10.75;89.31
36834;BME280;48003;52.084;5.224;2023-02-21T03:08:32;102062.0;;;11.03;87.53
36834;BME280;48003;52.084;5.224;2023-02-21T03:10:22;102053.0;;;10.87;87.88
36834;BME280;48003;52.084;5.224;2023-02-21T03:12:07;102061.0;;;10.9;88.55
36834;BME280;48003;52.084;5.224;2023-02-21T03:13:55;102055.0;;;11.15;87.28
36834;BME280;48003;52.084;5.224;2023-02-21T03:15:37;102060.0;;;11.26;86.47
36834;BME280;48003;52.084;5.224;2023-02-21T03:17:22;102060.0;;;11.04;87.37
36834;BME280;48003;52.084;5.224;2023-02-21T03:20:44;102060.0;;;10.84;88.61
36834;BME280;48003;52.084;5.224;2023-02-21T03:22:30;102055.0;;;10.8;88.45
36834;BME280;48003;52.084;5.224;2023-02-21T03:24:09;102058.0;;;11.35;86.58
36834;BME280;48003;52.084;5.224;2023-02-21T03:25:47;102058.0;;;11.39;85.78
36834;BME280;48003;52.084;5.224;2023-02-21T03:29:05;102059.0;;;11.17;86.7
36834;BME280;48003;52.084;5.224;2023-02-21T03:30:43;102053.0;;;11.37;86.16
36834;BME280;48003;52.084;5.224;2023-02-21T03:35:34;102055.0;;;11.43;85.28
36834;BME280;48003;52.084;5.224;2023-02-21T03:37:19;102056.0;;;11.08;87.62
36834;BME280;48003;52.084;5.224;2023-02-21T03:38:56;102059.0;;;11.32;86.07
36834;BME280;48003;52.084;5.224;2023-02-21T03:40:33;102060.0;;;11.42;85.69
36834;BME280;48003;52.084;5.224;2023-02-21T03:43:45;102055.0;;;11.29;86.53
36834;BME280;48003;52.084;5.224;2023-02-21T03:45:22;102055.0;;;11.4;85.98
36834;BME280;48003;52.084;5.224;2023-02-21T03:46:58;102053.0;;;11.41;86.02
36834;BME280;48003;52.084;5.224;2023-02-21T03:50:11;102047.0;;;11.45;85.61
36834;BME280;48003;52.084;5.224;2023-02-21T03:51:48;102052.0;;;11.44;86.01
36834;BME280;48003;52.084;5.224;2023-02-21T03:53:24;102048.0;;;11.39;85.87
36834;BME280;48003;52.084;5.224;2023-02-21T03:55:00;102047.0;;;11.36;85.72
36834;BME280;48003;52.084;5.224;2023-02-21T03:58:14;102046.0;;;10.97;87.49
36834;BME280;48003;52.084;5.224;2023-02-21T03:59:50;102050.0;;;11.21;86.89
36834;BME280;48003;52.084;5.224;2023-02-21T04:01:27;102052.0;;;11.5;85.46
36834;BME280;48003;52.084;5.224;2023-02-21T04:04:39;102055.0;;;11.55;85.17
36834;BME280;48003;52.084;5.224;2023-02-21T04:06:17;102050.0;;;11.39;85.97
36834;BME280;48003;52.084;5.224;2023-02-21T04:07:53;102044.0;;;11.25;86.54
36834;BME280;48003;52.084;5.224;2023-02-21T04:11:06;102051.0;;;11.3;86.31
36834;BME280;48003;52.084;5.224;2023-02-21T04:12:42;102042.0;;;10.88;88.03
36834;BME280;48003;52.084;5.224;2023-02-21T04:14:18;102043.0;;;11.18;87.31
36834;BME280;48003;52.084;5.224;2023-02-21T04:15:54;102039.0;;;11.39;85.97
36834;BME280;48003;52.084;5.224;2023-02-21T04:19:06;102036.0;;;11.17;86.93
36834;BME280;48003;52.084;5.224;2023-02-21T04:20:45;102040.0;;;11.33;86.39
36834;BME280;48003;52.084;5.224;2023-02-21T04:22:22;102044.0;;;11.13;86.6
36834;BME280;48003;52.084;5.224;2023-02-21T04:25:34;102042.0;;;11.24;87.08
36834;BME280;48003;52.084;5.224;2023-02-21T04:27:12;102041.0;;;11.49;85.62
36834;BME280;48003;52.084;5.224;2023-02-21T04:28:48;102047.0;;;11.02;87.26
36834;BME280;48003;52.084;5.224;2023-02-21T04:33:38;102043.0;;;11.49;85.5
36834;BME280;48003;52.084;5.224;2023-02-21T04:35:15;102044.0;;;11.17;86.42
36834;BME280;48003;52.084;5.224;2023-02-21T04:36:51;102038.0;;;10.95;88.49
36834;BME280;48003;52.084;5.224;2023-02-21T04:40:04;102036.0;;;10.79;88.36
36834;BME280;48003;52.084;5.224;2023-02-21T04:41:41;102030.0;;;11.09;88.22
36834;BME280;48003;52.084;5.224;2023-02-21T04:43:20;102030.0;;;11.16;87.35
36834;BME280;48003;52.084;5.224;2023-02-21T04:46:32;102028.0;;;11.0;87.87
36834;BME280;48003;52.084;5.224;2023-02-21T04:48:09;102031.0;;;10.96;87.9
36834;BME280;48003;52.084;5.224;2023-02-21T04:49:50;102033.0;;;10.77;88.82
36834;BME280;48003;52.084;5.224;2023-02-21T04:51:26;102033.0;;;10.68;89.64
36834;BME280;48003;52.084;5.224;2023-02-21T04:54:38;102025.0;;;11.13;88.38
36834;BME280;48003;52.084;5.224;2023-02-21T04:56:18;102022.0;;;11.04;88.61
36834;BME280;48003;52.084;5.224;2023-02-21T04:57:54;102021.0;;;11.23;87.18
36834;BME280;48003;52.084;5.224;2023-02-21T05:01:06;102020.0;;;11.34;86.85
36834;BME280;48003;52.084;5.224;2023-02-21T05:02:43;102022.0;;;11.33;87.16
36834;BME280;48003;52.084;5.224;2023-02-21T05:07:32;102020.0;;;10.95;88.15
36834;BME280;48003;52.084;5.224;2023-02-21T05:09:08;102015.0;;;11.03;88.88
36834;BME280;48003;52.084;5.224;2023-02-21T05:10:45;102024.0;;;11.26;87.34
36834;BME280;48003;52.084;5.224;2023-02-21T05:12:21;102015.0;;;11.29;87.1
36834;BME280;48003;52.084;5.224;2023-02-21T05:15:34;102019.0;;;11.27;86.93
36834;BME280;48003;52.084;5.224;2023-02-21T05:17:10;102021.0;;;11.4;86.48
36834;BME280;48003;52.084;5.224;2023-02-21T05:18:47;102022.0;;;11.22;87.43
36834;BME280;48003;52.084;5.224;2023-02-21T05:22:02;102028.0;;;11.03;87.66
36834;BME280;48003;52.084;5.224;2023-02-21T05:23:39;102020.0;;;11.05;88.36
36834;BME280;48003;52.084;5.224;2023-02-21T05:25:17;102018.0;;;11.41;86.66
36834;BME280;48003;52.084;5.224;2023-02-21T05:28:33;102025.0;;;11.27;87.34
36834;BME280;48003;52.084;5.224;2023-02-21T05:30:10;102025.0;;;10.96;88.35
36834;BME280;48003;52.084;5.224;2023-02-21T05:31:47;102020.0;;;11.11;88.28
36834;BME280;48003;52.084;5.224;2023-02-21T05:33:24;102030.0;;;11.2;87.39
36834;BME280;48003;52.084;5.224;2023-02-21T05:36:38;102028.0;;;11.02;88.49
36834;BME280;48003;52.084;5.224;2023-02-21T05:38:16;102031.0;;;11.36;86.94
36834;BME280;48003;52.084;5.224;2023-02-21T05:39:53;102034.0;;;11.15;87.21
36834;BME280;48003;52.084;5.224;2023-02-21T05:43:06;102037.0;;;11.21;87.89
36834;BME280;48003;52.084;5.224;2023-02-21T05:44:43;102037.0;;;11.24;87.24
36834;BME280;48003;52.084;5.224;2023-02-21T05:46:23;102036.0;;;11.45;86.67
36834;BME280;48003;52.084;5.224;2023-02-21T05:48:01;102032.0;;;11.53;85.78
36834;BME280;48003;52.084;5.224;2023-02-21T05:51:15;102033.0;;;11.17;87.58
36834;BME280;48003;52.084;5.224;2023-02-21T05:52:52;102035.0;;;10.95;88.74
36834;BME280;48003;52.084;5.224;2023-02-21T05:54:28;102044.0;;;11.22;87.72
36834;BME280;48003;52.084;5.224;2023-02-21T05:57:40;102050.0;;;11.46;86.43
36834;BME280;48003;52.084;5.224;2023-02-21T05:59:19;102053.0;;;10.85;88.39
36834;BME280;48003;52.084;5.224;2023-02-21T06:00:56;102045.0;;;11.04;88.65
36834;BME280;48003;52.084;5.224;2023-02-21T06:04:09;102041.0;;;10.94;88.43
36834;BME280;48003;52.084;5.224;2023-02-21T06:05:46;102037.0;;;11.09;88.12
36834;BME280;48003;52.084;5.224;2023-02-21T06:07:22;102035.0;;;10.88;88.95
36834;BME280;48003;52.084;5.224;2023-02-21T06:08:58;102034.0;;;10.85;89.51
36834;BME280;48003;52.084;5.224;2023-02-21T06:12:12;102039.0;;;10.93;89.24
36834;BME280;48003;52.084;5.224;2023-02-21T06:13:49;102044.0;;;11.36;87.3
36834;BME280;48003;52.084;5.224;2023-02-21T06:15:26;102048.0;;;11.51;86.37
36834;BME280;48003;52.084;5.224;2023-02-21T06:18:38;102048.0;;;11.29;87.2
36834;BME280;48003;52.084;5.224;2023-02-21T06:20:15;102045.0;;;11.37;87.32
36834;BME280;48003;52.084;5.224;2023-02-21T06:21:53;102043.0;;;11.3;87.53
36834;BME280;48003;52.084;5.224;2023-02-21T06:23:29;102037.0;;;11.18;87.45
36834;BME280;48003;52.084;5.224;2023-02-21T06:26:44;102039.0;;;11.4;87.18
36834;BME280;48003;52.084;5.224;2023-02-21T06:28:20;102041.0;;;11.51;86.45
36834;BME280;48003;52.084;5.224;2023-02-21T06:29:57;102047.0;;;11.47;86.33
36834;BME280;48003;52.084;5.224;2023-02-21T06:33:09;102047.0;;;11.56;85.72
36834;BME280;48003;52.084;5.224;2023-02-21T06:34:45;102047.0;;;11.51;85.92
36834;BME280;48003;52.084;5.224;2023-02-21T06:36:24;102050.0;;;11.4;86.15
36834;BME280;48003;52.084;5.224;2023-02-21T06:39:38;102047.0;;;11.52;85.9
36834;BME280;48003;52.084;5.224;2023-02-21T06:41:16;102049.0;;;11.21;87.69
36834;BME280;48003;52.084;5.224;2023-02-21T06:42:54;102053.0;;;11.43;86.53
36834;BME280;48003;52.084;5.224;2023-02-21T06:44:30;102052.0;;;11.55;85.83
36834;BME280;48003;52.084;5.224;2023-02-21T06:47:43;102059.0;;;11.6;85.84
36834;BME280;48003;52.084;5.224;2023-02-21T06:49:19;102055.0;;;11.49;86.3
36834;BME280;48003;52.084;5.224;2023-02-21T06:50:55;102055.0;;;10.98;88.68
36834;BME280;48003;52.084;5.224;2023-02-21T06:54:08;102059.0;;;11.12;88.16
36834;BME280;48003;52.084;5.224;2023-02-21T06:55:44;102059.0;;;11.34;86.8
36834;BME280;48003;52.084;5.224;2023-02-21T06:57:21;102061.0;;;11.24;87.08
36834;BME280;48003;52.084;5.224;2023-02-21T07:00:33;102056.0;;;11.15;87.97
36834;BME280;48003;52.084;5.224;2023-02-21T07:02:14;102058.0;;;11.26;87.66
36834;BME280;48003;52.084;5.224;2023-02-21T07:03:53;102057.0;;;11.18;88.23
36834;BME280;48003;52.084;5.224;2023-02-21T07:05:33;102055.0;;;11.32;87.78
36834;BME280;48003;52.084;5.224;2023-02-21T07:08:46;102055.0;;;11.6;85.77
36834;BME280;48003;52.084;5.224;2023-02-21T07:10:22;102058.0;;;11.3;87.37
36834;BME280;48003;52.084;5.224;2023-02-21T07:11:58;102055.0;;;11.23;87.93
36834;BME280;48003;52.084;5.224;2023-02-21T07:15:12;102057.0;;;11.02;87.93
36834;BME280;48003;52.084;5.224;2023-02-21T07:16:49;102055.0;;;10.9;88.89
36834;BME280;48003;52.084;5.224;2023-02-21T07:18:26;102057.0;;;11.01;89.57
36834;BME280;48003;52.084;5.224;2023-02-21T07:20:04;102051.0;;;11.03;88.39
36834;BME280;48003;52.084;5.224;2023-02-21T07:23:16;102050.0;;;11.4;87.34
36834;BME280;48003;52.084;5.224;2023-02-21T07:24:53;102053.0;;;11.45;86.63
36834;BME280;48003;52.084;5.224;2023-02-21T07:26:30;102050.0;;;11.55;85.91
36834;BME280;48003;52.084;5.224;2023-02-21T07:29:42;102050.0;;;11.39;87.17
36834;BME280;48003;52.084;5.224;2023-02-21T07:31:21;102048.0;;;11.31;87.27
36834;BME280;48003;52.084;5.224;2023-02-21T07:32:59;102051.0;;;11.4;87.24
36834;BME280;48003;52.084;5.224;2023-02-21T07:37:47;102055.0;;;11.56;86.25
36834;BME280;48003;52.084;5.224;2023-02-21T07:39:23;102060.0;;;11.45;86.31
36834;BME280;48003;52.084;5.224;2023-02-21T07:41:01;102060.0;;;11.55;86.42
36834;BME280;48003;52.084;5.224;2023-02-21T07:44:19;102056.0;;;11.16;87.66
36834;BME280;48003;52.084;5.224;2023-02-21T07:45:55;102057.0;;;11.29;87.95
36834;BME280;48003;52.084;5.224;2023-02-21T07:47:32;102056.0;;;11.38;87.36
36834;BME280;48003;52.084;5.224;2023-02-21T07:50:45;102053.0;;;11.49;86.53
36834;BME280;48003;52.084;5.224;2023-02-21T07:52:22;102057.0;;;11.41;86.74
36834;BME280;48003;52.084;5.224;2023-02-21T07:53:58;102055.0;;;11.66;85.65
36834;BME280;48003;52.084;5.224;2023-02-21T07:55:34;102066.0;;;11.48;86.63
36834;BME280;48003;52.084;5.224;2023-02-21T07:58:47;102062.0;;;11.75;85.46
36834;BME280;48003;52.084;5.224;2023-02-21T08:00:24;102066.0;;;11.5;86.58
36834;BME280;48003;52.084;5.224;2023-02-21T08:02:02;102068.0;;;11.71;85.69
36834;BME280;48003;52.084;5.224;2023-02-21T08:05:17;102069.0;;;11.85;85.03
36834;BME280;48003;52.084;5.224;2023-02-21T08:06:57;102071.0;;;11.55;86.63
36834;BME280;48003;52.084;5.224;2023-02-21T08:08:34;102074.0;;;11.71;85.79
36834;BME280;48003;52.084;5.224;2023-02-21T08:10:11;102076.0;;;11.13;87.76
36834;BME280;48003;52.084;5.224;2023-02-21T08:13:25;102077.0;;;11.48;86.91
36834;BME280;48003;52.084;5.224;2023-02-21T08:15:01;102080.0;;;11.79;85.15
36834;BME280;48003;52.084;5.224;2023-02-21T08:16:37;102075.0;;;11.73;85.69
36834;BME280;48003;52.084;5.224;2023-02-21T08:19:56;102076.0;;;11.69;86.12
36834;BME280;48003;52.084;5.224;2023-02-21T08:21:33;102080.0;;;11.69;85.9
36834;BME280;48003;52.084;5.224;2023-02-21T08:23:09;102075.0;;;11.71;86.02
36834;BME280;48003;52.084;5.224;2023-02-21T08:26:24;102076.0;;;11.44;87.63
36834;BME280;48003;52.084;5.224;2023-02-21T08:28:00;102071.0;;;11.72;86.01
36834;BME280;48003;52.084;5.224;2023-02-21T08:29:37;102076.0;;;11.68;86.2
36834;BME280;48003;52.084;5.224;2023-02-21T08:31:13;102073.0;;;11.3;87.24
36834;BME280;48003;52.084;5.224;2023-02-21T08:34:28;102069.0;;;11.41;87.97
36834;BME280;48003;52.084;5.224;2023-02-21T08:36:05;102065.0;;;11.5;86.9
36834;BME280;48003;52.084;5.224;2023-02-21T08:37:45;102066.0;;;11.41;87.93
36834;BME280;48003;52.084;5.224;2023-02-21T08:40:58;102062.0;;;11.03;88.99
36834;BME280;48003;52.084;5.224;2023-02-21T08:42:34;102063.0;;;11.36;88.55
36834;BME280;48003;52.084;5.224;2023-02-21T08:44:12;102061.0;;;11.26;88.22
36834;BME280;48003;52.084;5.224;2023-02-21T08:45:49;102066.0;;;11.48;87.42
36834;BME280;48003;52.084;5.224;2023-02-21T08:49:02;102060.0;;;11.3;88.34
36834;BME280;48003;52.084;5.224;2023-02-21T08:50:39;102059.0;;;11.19;88.44
36834;BME280;48003;52.084;5.224;2023-02-21T08:52:16;102064.0;;;11.35;88.25
36834;BME280;48003;52.084;5.224;2023-02-21T08:55:29;102067.0;;;11.37;88.3
36834;BME280;48003;52.084;5.224;2023-02-21T08:57:06;102065.0;;;10.94;89.4
36834;BME280;48003;52.084;5.224;2023-02-21T08:58:42;102061.0;;;11.15;89.21
36834;BME280;48003;52.084;5.224;2023-02-21T09:01:58;102059.0;;;11.18;89.4
36834;BME280;48003;52.084;5.224;2023-02-21T09:03:35;102057.0;;;11.28;89.05
36834;BME280;48003;52.084;5.224;2023-02-21T09:05:14;102062.0;;;11.17;89.46
36834;BME280;48003;52.084;5.224;2023-02-21T09:06:53;102062.0;;;11.45;88.09
36834;BME280;48003;52.084;5.224;2023-02-21T09:10:08;102063.0;;;11.49;88.15
36834;BME280;48003;52.084;5.224;2023-02-21T09:11:47;102051.0;;;11.27;89.08
36834;BME280;48003;52.084;5.224;2023-02-21T09:13:24;102051.0;;;11.4;88.59
36834;BME280;48003;52.084;5.224;2023-02-21T09:16:38;102052.0;;;11.5;88.25
36834;BME280;48003;52.084;5.224;2023-02-21T09:18:15;102053.0;;;11.36;88.82
36834;BME280;48003;52.084;5.224;2023-02-21T09:19:52;102051.0;;;11.43;88.71
36834;BME280;48003;52.084;5.224;2023-02-21T09:21:28;102044.0;;;11.17;90.19
36834;BME280;48003;52.084;5.224;2023-02-21T09:24:41;102045.0;;;11.12;90.36
36834;BME280;48003;52.084;5.224;2023-02-21T09:26:17;102047.0;;;11.33;89.61
36834;BME280;48003;52.084;5.224;2023-02-21T09:27:53;102044.0;;;11.25;89.6
36834;BME280;48003;52.084;5.224;2023-02-21T09:31:07;102043.0;;;11.04;90.83
36834;BME280;48003;52.084;5.224;2023-02-21T09:32:46;102040.0;;;11.12;90.67
36834;BME280;48003;52.084;5.224;2023-02-21T09:34:23;102037.0;;;11.11;90.84
36834;BME280;48003;52.084;5.224;2023-02-21T09:35:59;102039.0;;;10.97;92.08
36834;BME280;48003;52.084;5.224;2023-02-21T09:39:14;102036.0;;;10.98;90.87
36834;BME280;48003;52.084;5.224;2023-02-21T09:40:55;102034.0;;;10.79;91.81
36834;BME280;48003;52.084;5.224;2023-02-21T09:42:35;102033.0;;;10.51;93.52
36834;BME280;48003;52.084;5.224;2023-02-21T09:45:55;102030.0;;;10.67;92.71
36834;BME280;48003;52.084;5.224;2023-02-21T09:47:37;102030.0;;;10.88;92.96
36834;BME280;48003;52.084;5.224;2023-02-21T09:49:19;102030.0;;;11.15;90.68
36834;BME280;48003;52.084;5.224;2023-02-21T09:51:01;102025.0;;;11.04;91.22
36834;BME280;48003;52.084;5.224;2023-02-21T09:54:23;102025.0;;;11.22;90.33
36834;BME280;48003;52.084;5.224;2023-02-21T09:56:04;102030.0;;;11.44;89.3
36834;BME280;48003;52.084;5.224;2023-02-21T09:57:42;102028.0;;;11.02;91.5
36834;BME280;48003;52.084;5.224;2023-02-21T09:59:19;102023.0;;;11.44;90.11
36834;BME280;48003;52.084;5.224;2023-02-21T10:02:42;102021.0;;;11.16;90.83
36834;BME280;48003;52.084;5.224;2023-02-21T10:04:39;102019.0;;;10.92;92.02
36834;BME280;48003;52.084;5.224;2023-02-21T10:06:33;102013.0;;;11.26;91.36
36834;BME280;48003;52.084;5.224;2023-02-21T10:08:21;102014.0;;;11.54;89.16
36834;BME280;48003;52.084;5.224;2023-02-21T10:10:06;102013.0;;;11.26;91.2
36834;BME280;48003;52.084;5.224;2023-02-21T10:11:55;102014.0;;;11.4;89.67
36834;BME280;48003;52.084;5.224;2023-02-21T10:13:42;102013.0;;;11.59;89.17
36834;BME280;48003;52.084;5.224;2023-02-21T10:17:19;102018.0;;;11.73;88.34
36834;BME280;48003;52.084;5.224;2023-02-21T10:19:03;102017.0;;;11.35;89.45
36834;BME280;48003;52.084;5.224;2023-02-21T10:20:47;102016.0;;;11.2;91.09
36834;BME280;48003;52.084;5.224;2023-02-21T10:22:28;102017.0;;;11.43;90.36
36834;BME280;48003;52.084;5.224;2023-02-21T10:24:11;102021.0;;;11.35;89.69
36834;BME280;48003;52.084;5.224;2023-02-21T10:27:32;102020.0;;;11.13;91.21
36834;BME280;48003;52.084;5.224;2023-02-21T10:29:19;102019.0;;;11.51;89.94
36834;BME280;48003;52.084;5.224;2023-02-21T10:30:57;102021.0;;;11.42;89.59
36834;BME280;48003;52.084;5.224;2023-02-21T10:32:36;102026.0;;;11.19;91.2
36834;BME280;48003;52.084;5.224;2023-02-21T10:35:58;102023.0;;;11.41;90.49
36834;BME280;48003;52.084;5.224;2023-02-21T10:37:39;102024.0;;;11.33;91.04
36834;BME280;48003;52.084;5.224;2023-02-21T10:39:19;102023.0;;;11.36;90.88
36834;BME280;48003;52.084;5.224;2023-02-21T10:40:57;102024.0;;;10.9;92.24
36834;BME280;48003;52.084;5.224;2023-02-21T10:44:27;102026.0;;;11.48;90.39
36834;BME280;48003;52.084;5.224;2023-02-21T10:46:11;102026.0;;;11.61;89.23
36834;BME280;48003;52.084;5.224;2023-02-21T10:47:57;102027.0;;;11.61;89.09
36834;BME280;48003;52.084;5.224;2023-02-21T10:49:41;102031.0;;;11.42;89.4
36834;BME280;48003;52.084;5.224;2023-02-21T10:51:28;102031.0;;;11.41;89.82
36834;BME280;48003;52.084;5.224;2023-02-21T10:54:59;102032.0;;;11.65;88.99
36834;BME280;48003;52.084;5.224;2023-02-21T10:56:37;102031.0;;;11.38;89.92
36834;BME280;48003;52.084;5.224;2023-02-21T10:58:22;102031.0;;;11.47;90.18
36834;BME280;48003;52.084;5.224;2023-02-21T11:00:19;102030.0;;;11.42;90.22
36834;BME280;48003;52.084;5.224;2023-02-21T11:02:01;102027.0;;;11.54;89.3
36834;BME280;48003;52.084;5.224;2023-02-21T11:05:21;102027.0;;;11.73;88.74
36834;BME280;48003;52.084;5.224;2023-02-21T11:07:01;102017.0;;;11.94;87.38
36834;BME280;48003;52.084;5.224;2023-02-21T11:08:41;102015.0;;;12.04;86.6
36834;BME280;48003;52.084;5.224;2023-02-21T11:10:36;102025.0;;;11.62;88.16
36834;BME280;48003;52.084;5.224;2023-02-21T11:12:19;102019.0;;;11.73;88.39
36834;BME280;48003;52.084;5.224;2023-02-21T11:16:08;102015.0;;;11.75;88.47
36834;BME280;48003;52.084;5.224;2023-02-21T11:18:02;102024.0;;;11.74;88.37
36834;BME280;48003;52.084;5.224;2023-02-21T11:19:45;102016.0;;;11.84;87.75
36834;BME280;48003;52.084;5.224;2023-02-21T11:21:26;102022.0;;;11.66;87.71
36834;BME280;48003;52.084;5.224;2023-02-21T11:23:18;102011.0;;;11.83;86.97
36834;BME280;48003;52.084;5.224;2023-02-21T11:24:58;102011.0;;;11.75;87.97
36834;BME280;48003;52.084;5.224;2023-02-21T11:28:22;102016.0;;;11.45;89.16
36834;BME280;48003;52.084;5.224;2023-02-21T11:30:09;102014.0;;;11.45;89.45
36834;BME280;48003;52.084;5.224;2023-02-21T11:31:49;102009.0;;;11.66;88.55
36834;BME280;48003;52.084;5.224;2023-02-21T11:33:26;102006.0;;;11.76;88.26
36834;BME280;48003;52.084;5.224;2023-02-21T11:37:01;102009.0;;;11.19;90.23
36834;BME280;48003;52.084;5.224;2023-02-21T11:38:43;102005.0;;;11.25;89.67
36834;BME280;48003;52.084;5.224;2023-02-21T11:40:26;102007.0;;;11.34;90.04
36834;BME280;48003;52.084;5.224;2023-02-21T11:42:24;102009.0;;;11.46;89.12
36834;BME280;48003;52.084;5.224;2023-02-21T11:44:07;102005.0;;;11.56;88.59
36834;BME280;48003;52.084;5.224;2023-02-21T11:46:04;102010.0;;;11.73;87.9
36834;BME280;48003;52.084;5.224;2023-02-21T11:48:00;102017.0;;;11.42;89.28
36834;BME280;48003;52.084;5.224;2023-02-21T11:51:33;102009.0;;;11.6;88.92
36834;BME280;48003;52.084;5.224;2023-02-21T11:53:17;102002.0;;;11.63;88.34
36834;BME280;48003;52.084;5.224;2023-02-21T11:54:57;102003.0;;;11.66;88.19
36834;BME280;48003;52.084;5.224;2023-02-21T11:56:43;101999.0;;;11.83;87.05
36834;BME280;48003;52.084;5.224;2023-02-21T11:58:25;101997.0;;;11.16;89.73
36834;BME280;48003;52.084;5.224;2023-02-21T12:02:18;102000.0;;;11.39;90.0
36834;BME280;48003;52.084;5.224;2023-02-21T12:04:29;102003.0;;;11.7;88.67
36834;BME280;48003;52.084;5.224;2023-02-21T12:06:19;101993.0;;;11.87;87.23
36834;BME280;48003;52.084;5.224;2023-02-21T12:08:13;101995.0;;;11.98;86.46
36834;BME280;48003;52.084;5.224;2023-02-21T12:10:08;101999.0;;;11.42;88.53
36834;BME280;48003;52.084;5.224;2023-02-21T12:12:15;101996.0;;;11.48;89.0
36834;BME280;48003;52.084;5.224;2023-02-21T12:14:08;101995.0;;;11.06;90.72
36834;BME280;48003;52.084;5.224;2023-02-21T12:16:00;101996.0;;;11.33;89.31
36834;BME280;48003;52.084;5.224;2023-02-21T12:17:54;101990.0;;;11.61;88.74
36834;BME280;48003;52.084;5.224;2023-02-21T12:20:06;101989.0;;;11.41;89.51
36834;BME280;48003;52.084;5.224;2023-02-21T12:23:18;101987.0;;;11.33;89.43
36834;BME280;48003;52.084;5.224;2023-02-21T12:25:07;101988.0;;;11.6;89.22
36834;BME280;48003;52.084;5.224;2023-02-21T12:26:55;101984.0;;;11.61;88.99
36834;BME280;48003;52.084;5.224;2023-02-21T12:28:49;101980.0;;;11.84;87.01
36834;BME280;48003;52.084;5.224;2023-02-21T12:30:52;101976.0;;;11.86;87.26
36834;BME280;48003;52.084;5.224;2023-02-21T12:32:48;101974.0;;;12.1;85.65
36834;BME280;48003;52.084;5.224;2023-02-21T12:34:45;101975.0;;;11.97;86.37
36834;BME280;48003;52.084;5.224;2023-02-21T12:37:43;101969.0;;;12.05;85.88
36834;BME280;48003;52.084;5.224;2023-02-21T12:39:44;101974.0;;;11.67;87.84
36834;BME280;48003;52.084;5.224;2023-02-21T12:41:35;101966.0;;;12.1;85.83
36834;BME280;48003;52.084;5.224;2023-02-21T12:44:47;101970.0;;;12.0;86.32
36834;BME280;48003;52.084;5.224;2023-02-21T12:46:35;101967.0;;;11.84;87.0
36834;BME280;48003;52.084;5.224;2023-02-21T12:50:05;101966.0;;;11.55;88.21
36834;BME280;48003;52.084;5.224;2023-02-21T12:51:54;101967.0;;;11.44;88.79
36834;BME280;48003;52.084;5.224;2023-02-21T12:53:37;101963.0;;;11.6;88.43
36834;BME280;48003;52.084;5.224;2023-02-21T12:55:25;101967.0;;;11.41;89.46
36834;BME280;48003;52.084;5.224;2023-02-21T12:57:06;101959.0;;;11.41;89.21
36834;BME280;48003;52.084;5.224;2023-02-21T13:00:31;101953.0;;;11.54;88.69
36834;BME280;48003;52.084;5.224;2023-02-21T13:02:20;101959.0;;;11.64;88.57
36834;BME280;48003;52.084;5.224;2023-02-21T13:04:07;101955.0;;;11.6;87.91
36834;BME280;48003;52.084;5.224;2023-02-21T13:05:53;101948.0;;;11.97;86.86
36834;BME280;48003;52.084;5.224;2023-02-21T13:07:36;101948.0;;;12.11;86.05
36834;BME280;48003;52.084;5.224;2023-02-21T13:11:10;101951.0;;;11.61;88.23
36834;BME280;48003;52.084;5.224;2023-02-21T13:12:54;101948.0;;;11.69;87.91
36834;BME280;48003;52.084;5.224;2023-02-21T13:14:38;101949.0;;;11.51;88.66
36834;BME280;48003;52.084;5.224;2023-02-21T13:16:18;101948.0;;;11.65;88.26
36834;BME280;48003;52.084;5.224;2023-02-21T13:17:58;101943.0;;;12.01;86.61
36834;BME280;48003;52.084;5.224;2023-02-21T13:21:28;101948.0;;;11.6;87.66
36834;BME280;48003;52.084;5.224;2023-02-21T13:24:45;101941.0;;;11.92;87.13
36834;BME280;48003;52.084;5.224;2023-02-21T13:26:38;101939.0;;;11.64;87.6
36834;BME280;48003;52.084;5.224;2023-02-21T13:29:23;101935.0;;;11.92;86.35
36834;BME280;48003;52.084;5.224;2023-02-21T13:31:01;101934.0;;;12.02;86.13
36834;BME280;48003;52.084;5.224;2023-02-21T13:32:49;101935.0;;;11.76;87.11
36834;BME280;48003;52.084;5.224;2023-02-21T13:34:36;101928.0;;;11.89;86.73
36834;BME280;48003;52.084;5.224;2023-02-21T13:38:07;101928.0;;;12.07;85.91
36834;BME280;48003;52.084;5.224;2023-02-21T13:39:49;101921.0;;;11.96;86.84